sensor_id;sensor_type;location;lat;lon;timestamp;temperature;humidity
12837;DHT22;6485;51.472;5.268;2022-10-31T00:41:30;13.70;99.90
12837;DHT22;6485;51.472;5.268;2022-10-31T00:43:58;13.70;99.90
12837;DHT22;6485;51.472;5.268;2022-10-31T00:46:26;13.70;99.90
12837;DHT22;6485;51.472;5.268;2022-10-31T00:48:54;13.70;99.90
12837;DHT22;6485;51.472;5.268;2022-10-31T00:51:22;13.70;99.90
12837;DHT22;6485;51.472;5.268;2022-10-31T00:53:50;13.70;99.90
12837;DHT22;6485;51.472;5.268;2022-10-31T00:56:18;13.70;99.90
12837;DHT22;6485;51.472;5.268;2022-10-31T00:58:47;13.70;99.90
12837;DHT22;6485;51.472;5.268;2022-10-31T01:01:15;13.60;99.90
12837;DHT22;6485;51.472;5.268;2022-10-31T01:03:43;13.60;99.90
12837;DHT22;6485;51.472;5.268;2022-10-31T01:06:12;13.60;99.90
12837;DHT22;6485;51.472;5.268;2022-10-31T01:08:41;13.60;99.90
12837;DHT22;6485;51.472;5.268;2022-10-31T01:11:11;13.50;99.90
12837;DHT22;6485;51.472;5.268;2022-10-31T01:13:39;13.50;99.90
12837;DHT22;6485;51.472;5.268;2022-10-31T01:16:10;13.40;99.90
12837;DHT22;6485;51.472;5.268;2022-10-31T01:18:38;13.40;99.90
12837;DHT22;6485;51.472;5.268;2022-10-31T01:21:07;13.40;99.90
12837;DHT22;6485;51.472;5.268;2022-10-31T01:23:35;13.30;99.90
12837;DHT22;6485;51.472;5.268;2022-10-31T01:26:05;13.30;99.90
12837;DHT22;6485;51.472;5.268;2022-10-31T01:28:33;13.30;99.90
12837;DHT22;6485;51.472;5.268;2022-10-31T01:31:02;13.30;99.90
12837;DHT22;6485;51.472;5.268;2022-10-31T01:33:32;13.30;99.90
12837;DHT22;6485;51.472;5.268;2022-10-31T01:36:00;13.30;99.90
12837;DHT22;6485;51.472;5.268;2022-10-31T01:38:28;13.20;99.90
12837;DHT22;6485;51.472;5.268;2022-10-31T01:40:56;13.20;99.90
12837;DHT22;6485;51.472;5.268;2022-10-31T01:43:26;13.20;99.90
12837;DHT22;6485;51.472;5.268;2022-10-31T01:45:58;13.10;99.90
12837;DHT22;6485;51.472;5.268;2022-10-31T01:48:26;13.10;99.90
12837;DHT22;6485;51.472;5.268;2022-10-31T01:50:59;13.00;99.90
12837;DHT22;6485;51.472;5.268;2022-10-31T01:53:27;13.00;99.90
12837;DHT22;6485;51.472;5.268;2022-10-31T01:55:55;13.00;99.90
12837;DHT22;6485;51.472;5.268;2022-10-31T01:58:24;12.90;99.90
12837;DHT22;6485;51.472;5.268;2022-10-31T02:00:53;12.90;99.90
12837;DHT22;6485;51.472;5.268;2022-10-31T02:03:28;12.90;99.90
12837;DHT22;6485;51.472;5.268;2022-10-31T02:05:58;12.80;99.90
12837;DHT22;6485;51.472;5.268;2022-10-31T02:08:27;12.80;99.90
12837;DHT22;6485;51.472;5.268;2022-10-31T02:10:56;12.80;99.90
12837;DHT22;6485;51.472;5.268;2022-10-31T02:13:24;12.70;99.90
12837;DHT22;6485;51.472;5.268;2022-10-31T02:15:54;12.70;99.90
12837;DHT22;6485;51.472;5.268;2022-10-31T02:18:22;12.60;99.90
12837;DHT22;6485;51.472;5.268;2022-10-31T02:29:05;12.50;99.90
12837;DHT22;6485;51.472;5.268;2022-10-31T02:31:40;12.50;99.90
12837;DHT22;6485;51.472;5.268;2022-10-31T02:34:12;12.50;99.90
12837;DHT22;6485;51.472;5.268;2022-10-31T02:36:45;12.50;99.90
12837;DHT22;6485;51.472;5.268;2022-10-31T02:39:17;12.50;99.90
12837;DHT22;6485;51.472;5.268;2022-10-31T02:41:47;12.50;99.90
12837;DHT22;6485;51.472;5.268;2022-10-31T02:44:19;12.40;99.90
12837;DHT22;6485;51.472;5.268;2022-10-31T02:46:51;12.40;99.90
12837;DHT22;6485;51.472;5.268;2022-10-31T02:49:22;12.40;99.90
12837;DHT22;6485;51.472;5.268;2022-10-31T02:51:52;12.30;99.90
12837;DHT22;6485;51.472;5.268;2022-10-31T02:54:22;12.30;99.90
12837;DHT22;6485;51.472;5.268;2022-10-31T03:31:59;12.20;99.90
12837;DHT22;6485;51.472;5.268;2022-10-31T03:34:28;12.20;99.90
12837;DHT22;6485;51.472;5.268;2022-10-31T03:36:58;12.10;99.90
12837;DHT22;6485;51.472;5.268;2022-10-31T03:39:27;12.10;99.90
12837;DHT22;6485;51.472;5.268;2022-10-31T03:41:58;12.10;99.90
12837;DHT22;6485;51.472;5.268;2022-10-31T03:44:27;12.10;99.90
12837;DHT22;6485;51.472;5.268;2022-10-31T03:46:57;12.10;99.90
12837;DHT22;6485;51.472;5.268;2022-10-31T03:49:25;12.10;99.90
12837;DHT22;6485;51.472;5.268;2022-10-31T03:51:54;12.10;99.90
12837;DHT22;6485;51.472;5.268;2022-10-31T03:54:25;12.10;99.90
12837;DHT22;6485;51.472;5.268;2022-10-31T03:56:56;12.00;99.90
12837;DHT22;6485;51.472;5.268;2022-10-31T03:59:26;12.00;99.90
12837;DHT22;6485;51.472;5.268;2022-10-31T04:01:55;11.90;99.90
12837;DHT22;6485;51.472;5.268;2022-10-31T04:04:26;12.00;99.90
12837;DHT22;6485;51.472;5.268;2022-10-31T04:06:55;12.00;99.90
12837;DHT22;6485;51.472;5.268;2022-10-31T04:09:25;11.90;99.90
12837;DHT22;6485;51.472;5.268;2022-10-31T04:11:54;12.00;99.90
12837;DHT22;6485;51.472;5.268;2022-10-31T04:14:24;11.90;99.90
12837;DHT22;6485;51.472;5.268;2022-10-31T04:16:53;12.00;99.90
12837;DHT22;6485;51.472;5.268;2022-10-31T04:19:22;12.00;99.90
12837;DHT22;6485;51.472;5.268;2022-10-31T04:21:51;12.00;99.90
12837;DHT22;6485;51.472;5.268;2022-10-31T04:24:19;12.00;99.90
12837;DHT22;6485;51.472;5.268;2022-10-31T04:26:47;12.00;99.90
12837;DHT22;6485;51.472;5.268;2022-10-31T04:29:15;12.00;99.90
12837;DHT22;6485;51.472;5.268;2022-10-31T04:31:43;12.10;99.90
12837;DHT22;6485;51.472;5.268;2022-10-31T04:34:11;12.10;99.90
12837;DHT22;6485;51.472;5.268;2022-10-31T04:44:39;12.20;99.90
12837;DHT22;6485;51.472;5.268;2022-10-31T04:47:07;12.20;99.90
12837;DHT22;6485;51.472;5.268;2022-10-31T04:49:35;12.30;99.90
12837;DHT22;6485;51.472;5.268;2022-10-31T04:52:03;12.20;99.90
12837;DHT22;6485;51.472;5.268;2022-10-31T04:54:31;12.30;99.90
12837;DHT22;6485;51.472;5.268;2022-10-31T04:56:59;12.30;99.90
12837;DHT22;6485;51.472;5.268;2022-10-31T04:59:27;12.30;99.90
12837;DHT22;6485;51.472;5.268;2022-10-31T05:01:56;12.30;99.90
12837;DHT22;6485;51.472;5.268;2022-10-31T05:04:24;12.30;99.90
12837;DHT22;6485;51.472;5.268;2022-10-31T05:06:52;12.30;99.90
12837;DHT22;6485;51.472;5.268;2022-10-31T05:09:19;12.30;99.90
12837;DHT22;6485;51.472;5.268;2022-10-31T05:11:47;12.30;99.90
12837;DHT22;6485;51.472;5.268;2022-10-31T05:14:15;12.30;99.90
12837;DHT22;6485;51.472;5.268;2022-10-31T05:16:43;12.30;99.90
12837;DHT22;6485;51.472;5.268;2022-10-31T05:19:13;12.30;99.90
12837;DHT22;6485;51.472;5.268;2022-10-31T05:21:41;12.30;99.90
12837;DHT22;6485;51.472;5.268;2022-10-31T05:24:09;12.20;99.90
12837;DHT22;6485;51.472;5.268;2022-10-31T05:26:37;12.30;99.90
12837;DHT22;6485;51.472;5.268;2022-10-31T05:29:05;12.20;99.90
12837;DHT22;6485;51.472;5.268;2022-10-31T05:31:33;12.20;99.90
12837;DHT22;6485;51.472;5.268;2022-10-31T05:34:01;12.20;99.90
12837;DHT22;6485;51.472;5.268;2022-10-31T05:36:31;12.20;99.90
12837;DHT22;6485;51.472;5.268;2022-10-31T05:38:58;12.20;99.90
12837;DHT22;6485;51.472;5.268;2022-10-31T05:41:26;12.20;99.90
12837;DHT22;6485;51.472;5.268;2022-10-31T05:43:54;12.20;99.90
12837;DHT22;6485;51.472;5.268;2022-10-31T05:49:13;12.10;99.90
12837;DHT22;6485;51.472;5.268;2022-10-31T05:51:42;12.10;99.90
12837;DHT22;6485;51.472;5.268;2022-10-31T05:54:10;12.10;99.90
12837;DHT22;6485;51.472;5.268;2022-10-31T05:56:41;12.00;99.90
12837;DHT22;6485;51.472;5.268;2022-10-31T05:59:09;12.00;99.90
12837;DHT22;6485;51.472;5.268;2022-10-31T06:01:37;12.00;99.90
12837;DHT22;6485;51.472;5.268;2022-10-31T06:04:05;12.00;99.90
12837;DHT22;6485;51.472;5.268;2022-10-31T06:06:33;11.90;99.90
12837;DHT22;6485;51.472;5.268;2022-10-31T06:09:03;11.90;99.90
12837;DHT22;6485;51.472;5.268;2022-10-31T06:27:23;11.70;99.90
12837;DHT22;6485;51.472;5.268;2022-10-31T06:29:51;11.80;99.90
12837;DHT22;6485;51.472;5.268;2022-10-31T06:32:21;11.70;99.90
12837;DHT22;6485;51.472;5.268;2022-10-31T06:34:50;11.50;99.90
12837;DHT22;6485;51.472;5.268;2022-10-31T06:37:19;11.70;99.90
12837;DHT22;6485;51.472;5.268;2022-10-31T06:39:50;11.60;99.90
12837;DHT22;6485;51.472;5.268;2022-10-31T06:42:18;11.70;99.90
12837;DHT22;6485;51.472;5.268;2022-10-31T06:44:48;11.70;99.90
12837;DHT22;6485;51.472;5.268;2022-10-31T06:47:17;11.70;99.90
12837;DHT22;6485;51.472;5.268;2022-10-31T06:49:45;11.70;99.90
12837;DHT22;6485;51.472;5.268;2022-10-31T06:52:14;11.70;99.90
12837;DHT22;6485;51.472;5.268;2022-10-31T06:54:42;11.70;99.90
12837;DHT22;6485;51.472;5.268;2022-10-31T06:59:42;11.80;99.90
12837;DHT22;6485;51.472;5.268;2022-10-31T07:02:15;11.80;99.90
12837;DHT22;6485;51.472;5.268;2022-10-31T07:04:45;11.80;99.90
12837;DHT22;6485;51.472;5.268;2022-10-31T07:07:13;11.90;99.90
12837;DHT22;6485;51.472;5.268;2022-10-31T07:09:41;11.90;99.90
12837;DHT22;6485;51.472;5.268;2022-10-31T07:12:09;12.00;99.90
12837;DHT22;6485;51.472;5.268;2022-10-31T07:14:38;12.00;99.90
12837;DHT22;6485;51.472;5.268;2022-10-31T07:17:08;12.10;99.90
12837;DHT22;6485;51.472;5.268;2022-10-31T07:19:38;12.20;99.90
12837;DHT22;6485;51.472;5.268;2022-10-31T07:22:06;12.30;99.90
12837;DHT22;6485;51.472;5.268;2022-10-31T07:24:34;12.30;99.90
12837;DHT22;6485;51.472;5.268;2022-10-31T07:27:03;12.40;99.90
12837;DHT22;6485;51.472;5.268;2022-10-31T07:29:31;12.40;99.90
12837;DHT22;6485;51.472;5.268;2022-10-31T07:31:59;12.40;99.90
12837;DHT22;6485;51.472;5.268;2022-10-31T07:34:28;12.50;99.90
12837;DHT22;6485;51.472;5.268;2022-10-31T07:58:23;12.90;99.90
12837;DHT22;6485;51.472;5.268;2022-10-31T08:26:37;13.50;99.90
12837;DHT22;6485;51.472;5.268;2022-10-31T08:29:06;13.50;99.90
12837;DHT22;6485;51.472;5.268;2022-10-31T08:31:34;13.60;99.90
12837;DHT22;6485;51.472;5.268;2022-10-31T08:34:08;13.70;99.90
12837;DHT22;6485;51.472;5.268;2022-10-31T08:36:36;13.70;99.90
12837;DHT22;6485;51.472;5.268;2022-10-31T08:39:08;13.80;99.90
12837;DHT22;6485;51.472;5.268;2022-10-31T08:41:37;13.80;99.90
12837;DHT22;6485;51.472;5.268;2022-10-31T08:44:06;13.80;99.90
12837;DHT22;6485;51.472;5.268;2022-10-31T08:46:34;13.90;99.90
12837;DHT22;6485;51.472;5.268;2022-10-31T08:49:03;13.90;99.90
12837;DHT22;6485;51.472;5.268;2022-10-31T08:51:31;13.90;99.90
12837;DHT22;6485;51.472;5.268;2022-10-31T08:54:00;14.00;99.90
12837;DHT22;6485;51.472;5.268;2022-10-31T08:56:28;14.00;99.90
12837;DHT22;6485;51.472;5.268;2022-10-31T08:59:09;14.10;99.90
12837;DHT22;6485;51.472;5.268;2022-10-31T09:01:37;14.10;99.90
12837;DHT22;6485;51.472;5.268;2022-10-31T09:04:05;14.10;99.90
12837;DHT22;6485;51.472;5.268;2022-10-31T09:06:34;14.10;99.90
12837;DHT22;6485;51.472;5.268;2022-10-31T09:09:04;14.20;99.90
12837;DHT22;6485;51.472;5.268;2022-10-31T09:11:33;14.20;99.90
12837;DHT22;6485;51.472;5.268;2022-10-31T09:14:01;14.30;99.90
12837;DHT22;6485;51.472;5.268;2022-10-31T09:16:30;14.30;99.90
12837;DHT22;6485;51.472;5.268;2022-10-31T09:18:58;14.40;99.90
12837;DHT22;6485;51.472;5.268;2022-10-31T09:21:27;14.50;99.90
12837;DHT22;6485;51.472;5.268;2022-10-31T09:23:55;14.60;99.90
12837;DHT22;6485;51.472;5.268;2022-10-31T09:26:23;14.70;99.90
12837;DHT22;6485;51.472;5.268;2022-10-31T09:28:52;14.70;99.90
12837;DHT22;6485;51.472;5.268;2022-10-31T09:31:20;14.70;99.90
12837;DHT22;6485;51.472;5.268;2022-10-31T09:33:49;14.70;99.90
12837;DHT22;6485;51.472;5.268;2022-10-31T09:36:20;14.70;99.90
12837;DHT22;6485;51.472;5.268;2022-10-31T09:49:33;14.90;99.90
12837;DHT22;6485;51.472;5.268;2022-10-31T09:52:05;15.00;99.90
12837;DHT22;6485;51.472;5.268;2022-10-31T09:54:40;15.10;99.90
12837;DHT22;6485;51.472;5.268;2022-10-31T09:57:10;15.10;99.90
12837;DHT22;6485;51.472;5.268;2022-10-31T09:59:40;15.10;99.90
12837;DHT22;6485;51.472;5.268;2022-10-31T10:02:12;15.10;99.90
12837;DHT22;6485;51.472;5.268;2022-10-31T10:04:44;15.20;99.90
12837;DHT22;6485;51.472;5.268;2022-10-31T10:07:27;15.30;99.90
12837;DHT22;6485;51.472;5.268;2022-10-31T10:09:58;15.40;99.90
12837;DHT22;6485;51.472;5.268;2022-10-31T10:12:39;15.40;99.90
12837;DHT22;6485;51.472;5.268;2022-10-31T10:15:22;15.50;99.90
12837;DHT22;6485;51.472;5.268;2022-10-31T10:17:53;15.50;99.90
12837;DHT22;6485;51.472;5.268;2022-10-31T10:20:30;15.60;99.90
12837;DHT22;6485;51.472;5.268;2022-10-31T10:23:05;15.60;99.90
12837;DHT22;6485;51.472;5.268;2022-10-31T10:25:39;15.60;99.90
12837;DHT22;6485;51.472;5.268;2022-10-31T10:28:10;15.60;99.90
12837;DHT22;6485;51.472;5.268;2022-10-31T10:30:44;15.60;99.90
12837;DHT22;6485;51.472;5.268;2022-10-31T10:33:14;15.60;99.90
12837;DHT22;6485;51.472;5.268;2022-10-31T10:35:45;15.70;99.90
12837;DHT22;6485;51.472;5.268;2022-10-31T10:38:16;15.70;99.90
12837;DHT22;6485;51.472;5.268;2022-10-31T11:13:22;16.10;99.90
12837;DHT22;6485;51.472;5.268;2022-10-31T11:15:53;16.20;99.90
12837;DHT22;6485;51.472;5.268;2022-10-31T11:18:22;16.30;99.90
12837;DHT22;6485;51.472;5.268;2022-10-31T11:20:52;16.30;99.90
12837;DHT22;6485;51.472;5.268;2022-10-31T11:23:21;16.40;99.90
12837;DHT22;6485;51.472;5.268;2022-10-31T11:25:51;16.40;99.90
12837;DHT22;6485;51.472;5.268;2022-10-31T11:28:19;16.40;99.90
12837;DHT22;6485;51.472;5.268;2022-10-31T11:30:50;16.50;99.90
12837;DHT22;6485;51.472;5.268;2022-10-31T11:33:20;16.50;99.90
12837;DHT22;6485;51.472;5.268;2022-10-31T11:35:49;16.60;99.90
12837;DHT22;6485;51.472;5.268;2022-10-31T11:38:24;16.60;99.90
12837;DHT22;6485;51.472;5.268;2022-10-31T11:40:53;16.60;99.90
12837;DHT22;6485;51.472;5.268;2022-10-31T11:43:22;16.70;99.90
12837;DHT22;6485;51.472;5.268;2022-10-31T11:45:51;16.70;99.90
12837;DHT22;6485;51.472;5.268;2022-10-31T11:48:20;16.70;99.90
12837;DHT22;6485;51.472;5.268;2022-10-31T11:50:50;16.80;99.90
12837;DHT22;6485;51.472;5.268;2022-10-31T11:53:26;16.80;99.90
12837;DHT22;6485;51.472;5.268;2022-10-31T11:56:04;16.80;99.90
12837;DHT22;6485;51.472;5.268;2022-10-31T11:58:33;16.90;99.90
12837;DHT22;6485;51.472;5.268;2022-10-31T12:01:02;17.00;99.90
12837;DHT22;6485;51.472;5.268;2022-10-31T12:03:38;17.10;99.90
12837;DHT22;6485;51.472;5.268;2022-10-31T12:06:09;17.20;99.90
12837;DHT22;6485;51.472;5.268;2022-10-31T12:08:40;17.20;99.90
12837;DHT22;6485;51.472;5.268;2022-10-31T12:11:11;17.20;99.90
12837;DHT22;6485;51.472;5.268;2022-10-31T12:13:44;17.20;99.90
12837;DHT22;6485;51.472;5.268;2022-10-31T12:16:18;17.30;99.90
12837;DHT22;6485;51.472;5.268;2022-10-31T12:18:53;17.30;99.90
12837;DHT22;6485;51.472;5.268;2022-10-31T12:21:27;17.40;99.90
12837;DHT22;6485;51.472;5.268;2022-10-31T12:24:00;17.40;99.90
12837;DHT22;6485;51.472;5.268;2022-10-31T12:26:32;17.50;99.90
12837;DHT22;6485;51.472;5.268;2022-10-31T12:29:12;17.60;99.90
12837;DHT22;6485;51.472;5.268;2022-10-31T12:31:50;17.60;99.90
12837;DHT22;6485;51.472;5.268;2022-10-31T12:34:29;17.60;99.90
12837;DHT22;6485;51.472;5.268;2022-10-31T12:37:02;17.70;99.90
12837;DHT22;6485;51.472;5.268;2022-10-31T12:39:35;17.70;99.90
12837;DHT22;6485;51.472;5.268;2022-10-31T12:42:08;17.80;99.90
12837;DHT22;6485;51.472;5.268;2022-10-31T12:44:56;17.90;99.90
12837;DHT22;6485;51.472;5.268;2022-10-31T13:26:24;18.10;99.90
12837;DHT22;6485;51.472;5.268;2022-10-31T13:28:57;18.10;99.90
12837;DHT22;6485;51.472;5.268;2022-10-31T13:31:28;18.10;99.90
12837;DHT22;6485;51.472;5.268;2022-10-31T13:33:57;18.10;99.90
12837;DHT22;6485;51.472;5.268;2022-10-31T13:36:27;18.20;99.90
12837;DHT22;6485;51.472;5.268;2022-10-31T13:39:02;18.20;99.90
12837;DHT22;6485;51.472;5.268;2022-10-31T13:41:36;18.30;99.90
12837;DHT22;6485;51.472;5.268;2022-10-31T13:44:10;18.30;99.90
12837;DHT22;6485;51.472;5.268;2022-10-31T13:46:41;18.30;99.90
12837;DHT22;6485;51.472;5.268;2022-10-31T13:52:04;18.30;99.90
12837;DHT22;6485;51.472;5.268;2022-10-31T14:16:17;18.10;99.90
12837;DHT22;6485;51.472;5.268;2022-10-31T14:18:47;18.10;99.90
12837;DHT22;6485;51.472;5.268;2022-10-31T14:21:16;18.20;99.90
12837;DHT22;6485;51.472;5.268;2022-10-31T14:23:55;18.10;99.90
12837;DHT22;6485;51.472;5.268;2022-10-31T14:29:23;18.00;99.90
12837;DHT22;6485;51.472;5.268;2022-10-31T14:31:54;18.00;99.90
12837;DHT22;6485;51.472;5.268;2022-10-31T14:34:23;17.90;99.90
12837;DHT22;6485;51.472;5.268;2022-10-31T14:36:59;17.80;99.90
12837;DHT22;6485;51.472;5.268;2022-10-31T14:39:31;17.70;99.90
12837;DHT22;6485;51.472;5.268;2022-10-31T14:42:07;17.70;99.90
12837;DHT22;6485;51.472;5.268;2022-10-31T14:44:42;17.70;99.90
12837;DHT22;6485;51.472;5.268;2022-10-31T15:03:29;17.70;99.90
12837;DHT22;6485;51.472;5.268;2022-10-31T15:06:40;17.60;99.90
12837;DHT22;6485;51.472;5.268;2022-10-31T15:09:20;17.50;99.90
12837;DHT22;6485;51.472;5.268;2022-10-31T15:11:48;17.50;99.90
12837;DHT22;6485;51.472;5.268;2022-10-31T15:14:21;17.50;99.90
12837;DHT22;6485;51.472;5.268;2022-10-31T15:16:50;17.50;99.90
12837;DHT22;6485;51.472;5.268;2022-10-31T15:19:21;17.40;99.90
12837;DHT22;6485;51.472;5.268;2022-10-31T15:21:51;17.20;99.90
12837;DHT22;6485;51.472;5.268;2022-10-31T15:24:20;17.10;99.90
12837;DHT22;6485;51.472;5.268;2022-10-31T15:26:51;17.10;99.90
12837;DHT22;6485;51.472;5.268;2022-10-31T15:29:21;17.10;99.90
12837;DHT22;6485;51.472;5.268;2022-10-31T15:31:50;17.00;99.90
12837;DHT22;6485;51.472;5.268;2022-10-31T15:34:25;17.00;99.90
12837;DHT22;6485;51.472;5.268;2022-10-31T15:36:55;17.00;99.90
12837;DHT22;6485;51.472;5.268;2022-10-31T16:14:16;16.20;99.90
12837;DHT22;6485;51.472;5.268;2022-10-31T16:44:56;15.70;99.90
12837;DHT22;6485;51.472;5.268;2022-10-31T16:47:24;15.60;99.90
12837;DHT22;6485;51.472;5.268;2022-10-31T16:49:54;15.50;99.90
12837;DHT22;6485;51.472;5.268;2022-10-31T16:52:26;15.50;99.90
12837;DHT22;6485;51.472;5.268;2022-10-31T16:55:10;15.50;99.90
12837;DHT22;6485;51.472;5.268;2022-10-31T16:57:40;15.40;99.90
12837;DHT22;6485;51.472;5.268;2022-10-31T17:00:13;15.40;99.90
12837;DHT22;6485;51.472;5.268;2022-10-31T17:02:42;15.40;99.90
12837;DHT22;6485;51.472;5.268;2022-10-31T17:10:30;15.30;99.90
12837;DHT22;6485;51.472;5.268;2022-10-31T17:13:03;15.20;99.90
12837;DHT22;6485;51.472;5.268;2022-10-31T17:15:37;15.10;99.90
12837;DHT22;6485;51.472;5.268;2022-10-31T17:18:06;15.10;99.90
12837;DHT22;6485;51.472;5.268;2022-10-31T17:20:34;15.00;99.90
12837;DHT22;6485;51.472;5.268;2022-10-31T17:23:02;15.10;99.90
12837;DHT22;6485;51.472;5.268;2022-10-31T17:25:31;15.10;99.90
12837;DHT22;6485;51.472;5.268;2022-10-31T17:28:01;15.20;99.90
12837;DHT22;6485;51.472;5.268;2022-10-31T17:30:30;15.30;99.90
12837;DHT22;6485;51.472;5.268;2022-10-31T17:38:20;15.40;99.90
12837;DHT22;6485;51.472;5.268;2022-10-31T17:40:50;15.50;99.90
12837;DHT22;6485;51.472;5.268;2022-10-31T17:43:19;15.40;99.90
12837;DHT22;6485;51.472;5.268;2022-10-31T17:59:11;15.40;99.90
12837;DHT22;6485;51.472;5.268;2022-10-31T18:16:19;15.30;99.90
12837;DHT22;6485;51.472;5.268;2022-10-31T20:13:41;14.70;99.90
12837;DHT22;6485;51.472;5.268;2022-10-31T20:16:11;14.70;99.90
12837;DHT22;6485;51.472;5.268;2022-10-31T20:18:40;14.70;99.90
12837;DHT22;6485;51.472;5.268;2022-10-31T20:21:09;14.70;99.90
12837;DHT22;6485;51.472;5.268;2022-10-31T20:23:37;14.70;99.90
12837;DHT22;6485;51.472;5.268;2022-10-31T20:26:07;14.70;99.90
12837;DHT22;6485;51.472;5.268;2022-10-31T20:28:35;14.70;99.90
12837;DHT22;6485;51.472;5.268;2022-10-31T20:31:10;14.70;99.90
12837;DHT22;6485;51.472;5.268;2022-10-31T20:33:38;14.70;99.90
12837;DHT22;6485;51.472;5.268;2022-10-31T20:36:06;14.70;99.90
12837;DHT22;6485;51.472;5.268;2022-10-31T20:38:36;14.70;99.90
12837;DHT22;6485;51.472;5.268;2022-10-31T20:41:04;14.70;99.90
12837;DHT22;6485;51.472;5.268;2022-10-31T20:43:32;14.70;99.90
12837;DHT22;6485;51.472;5.268;2022-10-31T20:46:01;14.70;99.90
12837;DHT22;6485;51.472;5.268;2022-10-31T20:48:31;14.70;99.90
12837;DHT22;6485;51.472;5.268;2022-10-31T20:50:59;14.70;99.90
12837;DHT22;6485;51.472;5.268;2022-10-31T20:53:27;14.70;99.90
12837;DHT22;6485;51.472;5.268;2022-10-31T20:55:59;14.70;99.90
12837;DHT22;6485;51.472;5.268;2022-10-31T20:58:33;14.70;99.90
12837;DHT22;6485;51.472;5.268;2022-10-31T21:01:01;14.60;99.90
12837;DHT22;6485;51.472;5.268;2022-10-31T21:03:30;14.60;99.90
12837;DHT22;6485;51.472;5.268;2022-10-31T21:06:02;14.50;99.90
12837;DHT22;6485;51.472;5.268;2022-10-31T21:08:30;14.50;99.90
12837;DHT22;6485;51.472;5.268;2022-10-31T21:16:31;14.50;99.90
12837;DHT22;6485;51.472;5.268;2022-10-31T21:19:06;14.60;99.90
12837;DHT22;6485;51.472;5.268;2022-10-31T21:21:35;14.50;99.90
12837;DHT22;6485;51.472;5.268;2022-10-31T21:24:03;14.50;99.90
12837;DHT22;6485;51.472;5.268;2022-10-31T21:26:33;14.60;99.90
12837;DHT22;6485;51.472;5.268;2022-10-31T21:29:02;14.60;99.90
12837;DHT22;6485;51.472;5.268;2022-10-31T21:31:31;14.70;99.90
12837;DHT22;6485;51.472;5.268;2022-10-31T21:33:59;14.70;99.90
12837;DHT22;6485;51.472;5.268;2022-10-31T21:36:28;14.70;99.90
12837;DHT22;6485;51.472;5.268;2022-10-31T21:38:56;14.70;99.90
12837;DHT22;6485;51.472;5.268;2022-10-31T21:41:25;14.80;99.90
12837;DHT22;6485;51.472;5.268;2022-10-31T21:43:53;14.70;99.90
12837;DHT22;6485;51.472;5.268;2022-10-31T21:46:23;14.80;99.90
12837;DHT22;6485;51.472;5.268;2022-10-31T21:48:51;14.80;99.90
12837;DHT22;6485;51.472;5.268;2022-10-31T21:51:19;14.80;99.90
12837;DHT22;6485;51.472;5.268;2022-10-31T21:53:49;14.80;99.90
12837;DHT22;6485;51.472;5.268;2022-10-31T21:56:34;14.70;99.90
12837;DHT22;6485;51.472;5.268;2022-10-31T21:59:03;14.70;99.90
12837;DHT22;6485;51.472;5.268;2022-10-31T22:01:31;14.70;99.90
12837;DHT22;6485;51.472;5.268;2022-10-31T22:04:00;14.60;99.90
12837;DHT22;6485;51.472;5.268;2022-10-31T22:06:28;14.60;99.90
12837;DHT22;6485;51.472;5.268;2022-10-31T22:08:58;14.60;99.90
12837;DHT22;6485;51.472;5.268;2022-10-31T22:11:27;14.60;99.90
12837;DHT22;6485;51.472;5.268;2022-10-31T22:13:56;14.60;99.90
12837;DHT22;6485;51.472;5.268;2022-10-31T22:16:25;14.50;99.90
12837;DHT22;6485;51.472;5.268;2022-10-31T22:18:55;14.50;99.90
12837;DHT22;6485;51.472;5.268;2022-10-31T22:21:24;14.50;99.90
12837;DHT22;6485;51.472;5.268;2022-10-31T22:23:53;14.50;99.90
12837;DHT22;6485;51.472;5.268;2022-10-31T22:26:23;14.50;99.90
12837;DHT22;6485;51.472;5.268;2022-10-31T22:28:52;14.50;99.90
12837;DHT22;6485;51.472;5.268;2022-10-31T22:31:22;14.50;99.90
12837;DHT22;6485;51.472;5.268;2022-10-31T22:33:50;14.50;99.90
12837;DHT22;6485;51.472;5.268;2022-10-31T22:36:19;14.50;99.90
12837;DHT22;6485;51.472;5.268;2022-10-31T22:38:47;14.50;99.90
12837;DHT22;6485;51.472;5.268;2022-10-31T22:41:16;14.50;99.90
12837;DHT22;6485;51.472;5.268;2022-10-31T22:43:46;14.50;99.90
12837;DHT22;6485;51.472;5.268;2022-10-31T22:46:14;14.60;99.90
12837;DHT22;6485;51.472;5.268;2022-10-31T22:48:43;14.60;99.90
12837;DHT22;6485;51.472;5.268;2022-10-31T22:51:12;14.60;99.90
12837;DHT22;6485;51.472;5.268;2022-10-31T22:53:41;14.60;99.90
12837;DHT22;6485;51.472;5.268;2022-10-31T22:56:11;14.60;99.90
12837;DHT22;6485;51.472;5.268;2022-10-31T22:58:39;14.60;99.90
12837;DHT22;6485;51.472;5.268;2022-10-31T23:01:09;14.60;99.90
12837;DHT22;6485;51.472;5.268;2022-10-31T23:03:38;14.60;99.90
12837;DHT22;6485;51.472;5.268;2022-10-31T23:06:06;14.60;99.90
12837;DHT22;6485;51.472;5.268;2022-10-31T23:08:36;14.60;99.90
12837;DHT22;6485;51.472;5.268;2022-10-31T23:11:11;14.60;99.90
12837;DHT22;6485;51.472;5.268;2022-10-31T23:13:40;14.60;99.90
12837;DHT22;6485;51.472;5.268;2022-10-31T23:16:27;14.60;99.90
12837;DHT22;6485;51.472;5.268;2022-10-31T23:18:55;14.70;99.90
12837;DHT22;6485;51.472;5.268;2022-10-31T23:21:23;14.60;99.90
12837;DHT22;6485;51.472;5.268;2022-10-31T23:24:09;14.70;99.90
12837;DHT22;6485;51.472;5.268;2022-10-31T23:26:38;14.70;99.90
12837;DHT22;6485;51.472;5.268;2022-10-31T23:29:24;14.80;99.90
12837;DHT22;6485;51.472;5.268;2022-10-31T23:31:53;14.80;99.90
12837;DHT22;6485;51.472;5.268;2022-10-31T23:34:21;14.90;99.90
12837;DHT22;6485;51.472;5.268;2022-10-31T23:36:49;15.00;99.90
12837;DHT22;6485;51.472;5.268;2022-10-31T23:39:17;15.00;99.90
12837;DHT22;6485;51.472;5.268;2022-10-31T23:41:50;14.90;99.90
12837;DHT22;6485;51.472;5.268;2022-10-31T23:44:18;15.00;99.90
12837;DHT22;6485;51.472;5.268;2022-10-31T23:46:46;15.10;99.90
12837;DHT22;6485;51.472;5.268;2022-10-31T23:49:15;15.20;99.90
12837;DHT22;6485;51.472;5.268;2022-10-31T23:51:43;15.30;99.90
12837;DHT22;6485;51.472;5.268;2022-10-31T23:54:11;15.30;99.90
12837;DHT22;6485;51.472;5.268;2022-10-31T23:56:39;15.40;99.90
12837;DHT22;6485;51.472;5.268;2022-10-31T23:59:07;15.40;99.90
